sensor_id;sensor_type;location;lat;lon;timestamp;P1;durP1;ratioP1;P2;durP2;ratioP2
81396;SDS011;70852;49.908;8.126;2023-07-02T00:01:50;4.55;;;1.52;;
81396;SDS011;70852;49.908;8.126;2023-07-02T00:04:15;5.35;;;1.70;;
81396;SDS011;70852;49.908;8.126;2023-07-02T00:06:42;4.47;;;1.60;;
81396;SDS011;70852;49.908;8.126;2023-07-02T00:09:08;5.32;;;1.52;;
81396;SDS011;70852;49.908;8.126;2023-07-02T00:11:36;5.85;;;1.83;;
81396;SDS011;70852;49.908;8.126;2023-07-02T00:14:08;3.88;;;1.30;;
81396;SDS011;70852;49.908;8.126;2023-07-02T00:16:35;3.40;;;1.58;;
81396;SDS011;70852;49.908;8.126;2023-07-02T00:19:05;4.25;;;1.70;;
81396;SDS011;70852;49.908;8.126;2023-07-02T00:21:32;3.38;;;1.50;;
81396;SDS011;70852;49.908;8.126;2023-07-02T00:24:02;4.38;;;1.88;;
81396;SDS011;70852;49.908;8.126;2023-07-02T00:26:30;4.65;;;1.60;;
81396;SDS011;70852;49.908;8.126;2023-07-02T00:28:56;4.97;;;1.55;;
81396;SDS011;70852;49.908;8.126;2023-07-02T00:31:24;3.88;;;1.45;;
81396;SDS011;70852;49.908;8.126;2023-07-02T00:33:51;2.90;;;1.55;;
81396;SDS011;70852;49.908;8.126;2023-07-02T00:36:19;4.13;;;1.50;;
81396;SDS011;70852;49.908;8.126;2023-07-02T00:38:46;3.63;;;1.50;;
81396;SDS011;70852;49.908;8.126;2023-07-02T00:41:15;4.13;;;1.40;;
81396;SDS011;70852;49.908;8.126;2023-07-02T00:43:41;4.32;;;1.50;;
81396;SDS011;70852;49.908;8.126;2023-07-02T00:46:18;5.28;;;1.42;;
81396;SDS011;70852;49.908;8.126;2023-07-02T00:48:47;3.15;;;1.50;;
81396;SDS011;70852;49.908;8.126;2023-07-02T00:51:16;4.05;;;1.50;;
81396;SDS011;70852;49.908;8.126;2023-07-02T00:53:53;3.97;;;1.70;;
81396;SDS011;70852;49.908;8.126;2023-07-02T00:56:25;3.47;;;1.50;;
81396;SDS011;70852;49.908;8.126;2023-07-02T00:58:52;2.83;;;1.50;;
81396;SDS011;70852;49.908;8.126;2023-07-02T01:01:19;4.47;;;1.55;;
81396;SDS011;70852;49.908;8.126;2023-07-02T01:03:59;5.75;;;1.65;;
81396;SDS011;70852;49.908;8.126;2023-07-02T01:06:29;4.15;;;1.40;;
81396;SDS011;70852;49.908;8.126;2023-07-02T01:09:02;6.45;;;1.80;;
81396;SDS011;70852;49.908;8.126;2023-07-02T01:13:59;3.67;;;1.50;;
81396;SDS011;70852;49.908;8.126;2023-07-02T01:16:30;3.20;;;1.45;;
81396;SDS011;70852;49.908;8.126;2023-07-02T01:19:01;3.38;;;1.70;;
81396;SDS011;70852;49.908;8.126;2023-07-02T01:21:32;4.20;;;1.52;;
81396;SDS011;70852;49.908;8.126;2023-07-02T01:23:59;3.95;;;1.65;;
81396;SDS011;70852;49.908;8.126;2023-07-02T01:26:29;4.82;;;2.28;;
81396;SDS011;70852;49.908;8.126;2023-07-02T01:29:18;5.38;;;2.10;;
81396;SDS011;70852;49.908;8.126;2023-07-02T01:31:45;3.40;;;1.73;;
81396;SDS011;70852;49.908;8.126;2023-07-02T01:34:12;4.63;;;2.10;;
81396;SDS011;70852;49.908;8.126;2023-07-02T01:36:41;5.75;;;2.10;;
81396;SDS011;70852;49.908;8.126;2023-07-02T01:39:06;4.47;;;1.83;;
81396;SDS011;70852;49.908;8.126;2023-07-02T01:41:36;4.35;;;2.00;;
81396;SDS011;70852;49.908;8.126;2023-07-02T01:44:06;3.65;;;1.70;;
81396;SDS011;70852;49.908;8.126;2023-07-02T01:46:31;4.43;;;1.70;;
81396;SDS011;70852;49.908;8.126;2023-07-02T01:48:59;6.45;;;2.05;;
81396;SDS011;70852;49.908;8.126;2023-07-02T01:51:24;4.35;;;1.83;;
81396;SDS011;70852;49.908;8.126;2023-07-02T01:53:49;7.53;;;1.92;;
81396;SDS011;70852;49.908;8.126;2023-07-02T01:56:17;4.93;;;2.00;;
81396;SDS011;70852;49.908;8.126;2023-07-02T01:58:43;5.53;;;2.10;;
81396;SDS011;70852;49.908;8.126;2023-07-02T02:01:08;4.93;;;1.92;;
81396;SDS011;70852;49.908;8.126;2023-07-02T02:03:33;3.97;;;2.10;;
81396;SDS011;70852;49.908;8.126;2023-07-02T02:05:58;4.93;;;1.80;;
81396;SDS011;70852;49.908;8.126;2023-07-02T02:08:24;4.03;;;1.90;;
81396;SDS011;70852;49.908;8.126;2023-07-02T02:10:51;6.25;;;2.10;;
81396;SDS011;70852;49.908;8.126;2023-07-02T02:13:19;6.07;;;2.08;;
81396;SDS011;70852;49.908;8.126;2023-07-02T02:15:47;4.47;;;1.77;;
81396;SDS011;70852;49.908;8.126;2023-07-02T02:18:12;4.45;;;2.20;;
81396;SDS011;70852;49.908;8.126;2023-07-02T02:20:40;5.30;;;2.10;;
81396;SDS011;70852;49.908;8.126;2023-07-02T02:23:05;5.90;;;2.03;;
81396;SDS011;70852;49.908;8.126;2023-07-02T02:25:31;4.47;;;2.03;;
81396;SDS011;70852;49.908;8.126;2023-07-02T02:27:58;6.03;;;2.40;;
81396;SDS011;70852;49.908;8.126;2023-07-02T02:30:23;6.43;;;2.55;;
81396;SDS011;70852;49.908;8.126;2023-07-02T02:32:53;5.32;;;2.40;;
81396;SDS011;70852;49.908;8.126;2023-07-02T02:35:18;6.40;;;2.55;;
81396;SDS011;70852;49.908;8.126;2023-07-02T02:37:47;5.05;;;2.65;;
81396;SDS011;70852;49.908;8.126;2023-07-02T02:40:12;6.00;;;2.78;;
81396;SDS011;70852;49.908;8.126;2023-07-02T02:42:38;6.75;;;2.95;;
81396;SDS011;70852;49.908;8.126;2023-07-02T02:45:06;9.52;;;2.50;;
81396;SDS011;70852;49.908;8.126;2023-07-02T02:47:32;7.43;;;2.75;;
81396;SDS011;70852;49.908;8.126;2023-07-02T02:49:57;6.32;;;2.85;;
81396;SDS011;70852;49.908;8.126;2023-07-02T02:52:24;7.95;;;2.65;;
81396;SDS011;70852;49.908;8.126;2023-07-02T02:54:50;5.80;;;2.42;;
81396;SDS011;70852;49.908;8.126;2023-07-02T02:57:20;7.50;;;2.33;;
81396;SDS011;70852;49.908;8.126;2023-07-02T02:59:45;6.28;;;2.67;;
81396;SDS011;70852;49.908;8.126;2023-07-02T03:02:11;8.35;;;2.85;;
81396;SDS011;70852;49.908;8.126;2023-07-02T03:04:36;6.15;;;2.80;;
81396;SDS011;70852;49.908;8.126;2023-07-02T03:07:07;8.88;;;2.90;;
81396;SDS011;70852;49.908;8.126;2023-07-02T03:09:32;6.60;;;2.80;;
81396;SDS011;70852;49.908;8.126;2023-07-02T03:12:00;6.78;;;2.13;;
81396;SDS011;70852;49.908;8.126;2023-07-02T03:14:28;6.55;;;2.60;;
81396;SDS011;70852;49.908;8.126;2023-07-02T03:16:55;5.82;;;2.45;;
81396;SDS011;70852;49.908;8.126;2023-07-02T03:19:21;5.88;;;2.75;;
81396;SDS011;70852;49.908;8.126;2023-07-02T03:21:46;5.13;;;2.72;;
81396;SDS011;70852;49.908;8.126;2023-07-02T03:24:11;6.57;;;2.90;;
81396;SDS011;70852;49.908;8.126;2023-07-02T03:26:40;7.95;;;3.05;;
81396;SDS011;70852;49.908;8.126;2023-07-02T03:29:06;7.18;;;2.70;;
81396;SDS011;70852;49.908;8.126;2023-07-02T03:31:31;9.48;;;2.75;;
81396;SDS011;70852;49.908;8.126;2023-07-02T03:33:59;7.78;;;2.75;;
81396;SDS011;70852;49.908;8.126;2023-07-02T03:36:28;8.23;;;3.20;;
81396;SDS011;70852;49.908;8.126;2023-07-02T03:38:56;5.20;;;2.45;;
81396;SDS011;70852;49.908;8.126;2023-07-02T03:41:21;7.07;;;2.80;;
81396;SDS011;70852;49.908;8.126;2023-07-02T03:43:49;6.10;;;2.67;;
81396;SDS011;70852;49.908;8.126;2023-07-02T03:46:19;8.32;;;2.78;;
81396;SDS011;70852;49.908;8.126;2023-07-02T03:48:47;6.30;;;2.42;;
81396;SDS011;70852;49.908;8.126;2023-07-02T03:51:12;5.20;;;2.75;;
81396;SDS011;70852;49.908;8.126;2023-07-02T03:53:41;6.57;;;2.60;;
81396;SDS011;70852;49.908;8.126;2023-07-02T03:56:07;6.53;;;2.63;;
81396;SDS011;70852;49.908;8.126;2023-07-02T03:58:34;6.18;;;2.50;;
81396;SDS011;70852;49.908;8.126;2023-07-02T04:03:29;6.57;;;2.67;;
81396;SDS011;70852;49.908;8.126;2023-07-02T04:05:56;6.43;;;2.63;;
81396;SDS011;70852;49.908;8.126;2023-07-02T04:08:22;6.55;;;2.90;;
81396;SDS011;70852;49.908;8.126;2023-07-02T04:10:50;5.63;;;2.72;;
81396;SDS011;70852;49.908;8.126;2023-07-02T04:13:17;8.07;;;2.78;;
81396;SDS011;70852;49.908;8.126;2023-07-02T04:15:45;6.80;;;2.88;;
81396;SDS011;70852;49.908;8.126;2023-07-02T04:18:12;7.38;;;3.05;;
81396;SDS011;70852;49.908;8.126;2023-07-02T04:20:39;9.15;;;3.15;;
81396;SDS011;70852;49.908;8.126;2023-07-02T04:23:10;8.80;;;3.38;;
81396;SDS011;70852;49.908;8.126;2023-07-02T04:25:37;7.88;;;3.30;;
81396;SDS011;70852;49.908;8.126;2023-07-02T04:28:03;7.03;;;3.10;;
81396;SDS011;70852;49.908;8.126;2023-07-02T04:30:30;7.75;;;3.58;;
81396;SDS011;70852;49.908;8.126;2023-07-02T04:32:55;7.53;;;3.13;;
81396;SDS011;70852;49.908;8.126;2023-07-02T04:35:23;8.50;;;3.08;;
81396;SDS011;70852;49.908;8.126;2023-07-02T04:37:48;7.95;;;3.17;;
81396;SDS011;70852;49.908;8.126;2023-07-02T04:40:15;6.78;;;3.17;;
81396;SDS011;70852;49.908;8.126;2023-07-02T04:42:41;8.45;;;3.72;;
81396;SDS011;70852;49.908;8.126;2023-07-02T04:45:14;9.77;;;3.45;;
81396;SDS011;70852;49.908;8.126;2023-07-02T04:47:42;5.85;;;3.00;;
81396;SDS011;70852;49.908;8.126;2023-07-02T04:50:08;9.30;;;3.75;;
81396;SDS011;70852;49.908;8.126;2023-07-02T04:52:34;7.43;;;3.40;;
81396;SDS011;70852;49.908;8.126;2023-07-02T04:55:02;8.88;;;3.42;;
81396;SDS011;70852;49.908;8.126;2023-07-02T04:57:30;7.45;;;3.65;;
81396;SDS011;70852;49.908;8.126;2023-07-02T04:59:58;8.27;;;3.92;;
81396;SDS011;70852;49.908;8.126;2023-07-02T05:02:27;8.43;;;3.40;;
81396;SDS011;70852;49.908;8.126;2023-07-02T05:04:57;10.63;;;3.65;;
81396;SDS011;70852;49.908;8.126;2023-07-02T05:07:24;7.20;;;3.90;;
81396;SDS011;70852;49.908;8.126;2023-07-02T05:09:50;8.52;;;3.72;;
81396;SDS011;70852;49.908;8.126;2023-07-02T05:12:17;9.77;;;3.72;;
81396;SDS011;70852;49.908;8.126;2023-07-02T05:14:43;9.95;;;4.57;;
81396;SDS011;70852;49.908;8.126;2023-07-02T05:17:08;9.95;;;4.13;;
81396;SDS011;70852;49.908;8.126;2023-07-02T05:19:33;10.80;;;4.50;;
81396;SDS011;70852;49.908;8.126;2023-07-02T05:22:01;10.50;;;4.57;;
81396;SDS011;70852;49.908;8.126;2023-07-02T05:24:26;10.73;;;4.78;;
81396;SDS011;70852;49.908;8.126;2023-07-02T05:26:54;10.98;;;4.95;;
81396;SDS011;70852;49.908;8.126;2023-07-02T05:29:22;11.63;;;4.72;;
81396;SDS011;70852;49.908;8.126;2023-07-02T05:31:47;11.02;;;4.60;;
81396;SDS011;70852;49.908;8.126;2023-07-02T05:34:14;10.75;;;4.90;;
81396;SDS011;70852;49.908;8.126;2023-07-02T05:36:42;12.52;;;4.70;;
81396;SDS011;70852;49.908;8.126;2023-07-02T05:39:09;10.50;;;4.75;;
81396;SDS011;70852;49.908;8.126;2023-07-02T05:41:37;10.60;;;4.20;;
81396;SDS011;70852;49.908;8.126;2023-07-02T05:44:02;12.30;;;4.57;;
81396;SDS011;70852;49.908;8.126;2023-07-02T05:46:32;10.52;;;4.60;;
81396;SDS011;70852;49.908;8.126;2023-07-02T05:49:00;11.75;;;4.88;;
81396;SDS011;70852;49.908;8.126;2023-07-02T05:51:25;10.57;;;4.90;;
81396;SDS011;70852;49.908;8.126;2023-07-02T05:53:53;11.30;;;5.10;;
81396;SDS011;70852;49.908;8.126;2023-07-02T05:56:18;13.20;;;5.97;;
81396;SDS011;70852;49.908;8.126;2023-07-02T05:58:46;11.95;;;5.95;;
81396;SDS011;70852;49.908;8.126;2023-07-02T06:01:13;14.98;;;7.18;;
81396;SDS011;70852;49.908;8.126;2023-07-02T06:03:43;13.55;;;6.30;;
81396;SDS011;70852;49.908;8.126;2023-07-02T06:06:13;16.95;;;6.20;;
81396;SDS011;70852;49.908;8.126;2023-07-02T06:08:38;15.10;;;6.38;;
81396;SDS011;70852;49.908;8.126;2023-07-02T06:11:04;13.07;;;6.20;;
81396;SDS011;70852;49.908;8.126;2023-07-02T06:13:31;15.35;;;6.75;;
81396;SDS011;70852;49.908;8.126;2023-07-02T06:15:59;14.57;;;6.68;;
81396;SDS011;70852;49.908;8.126;2023-07-02T06:18:24;13.77;;;6.65;;
81396;SDS011;70852;49.908;8.126;2023-07-02T06:20:50;16.17;;;6.75;;
81396;SDS011;70852;49.908;8.126;2023-07-02T06:23:17;16.55;;;7.50;;
81396;SDS011;70852;49.908;8.126;2023-07-02T06:25:48;15.60;;;7.38;;
81396;SDS011;70852;49.908;8.126;2023-07-02T06:28:26;15.77;;;6.68;;
81396;SDS011;70852;49.908;8.126;2023-07-02T06:30:51;18.75;;;6.95;;
81396;SDS011;70852;49.908;8.126;2023-07-02T06:33:21;16.50;;;7.90;;
81396;SDS011;70852;49.908;8.126;2023-07-02T06:35:52;14.13;;;6.45;;
81396;SDS011;70852;49.908;8.126;2023-07-02T06:38:17;13.98;;;6.50;;
81396;SDS011;70852;49.908;8.126;2023-07-02T06:40:43;13.88;;;6.63;;
81396;SDS011;70852;49.908;8.126;2023-07-02T06:43:10;15.30;;;7.30;;
81396;SDS011;70852;49.908;8.126;2023-07-02T06:45:36;15.15;;;6.80;;
81396;SDS011;70852;49.908;8.126;2023-07-02T06:48:01;15.30;;;6.90;;
81396;SDS011;70852;49.908;8.126;2023-07-02T06:50:26;18.88;;;7.13;;
81396;SDS011;70852;49.908;8.126;2023-07-02T06:52:52;20.95;;;7.70;;
81396;SDS011;70852;49.908;8.126;2023-07-02T06:55:17;14.05;;;7.20;;
81396;SDS011;70852;49.908;8.126;2023-07-02T06:57:45;14.07;;;7.55;;
81396;SDS011;70852;49.908;8.126;2023-07-02T07:00:11;15.38;;;7.25;;
81396;SDS011;70852;49.908;8.126;2023-07-02T07:02:40;13.95;;;7.38;;
81396;SDS011;70852;49.908;8.126;2023-07-02T07:05:08;16.75;;;7.78;;
81396;SDS011;70852;49.908;8.126;2023-07-02T07:07:37;15.93;;;7.93;;
81396;SDS011;70852;49.908;8.126;2023-07-02T07:10:02;13.35;;;7.18;;
81396;SDS011;70852;49.908;8.126;2023-07-02T07:12:28;14.68;;;8.00;;
81396;SDS011;70852;49.908;8.126;2023-07-02T07:14:54;16.90;;;7.97;;
81396;SDS011;70852;49.908;8.126;2023-07-02T07:17:19;16.70;;;8.02;;
81396;SDS011;70852;49.908;8.126;2023-07-02T07:19:47;14.60;;;7.65;;
81396;SDS011;70852;49.908;8.126;2023-07-02T07:22:12;17.20;;;8.23;;
81396;SDS011;70852;49.908;8.126;2023-07-02T07:24:41;16.83;;;8.55;;
81396;SDS011;70852;49.908;8.126;2023-07-02T07:27:06;14.13;;;8.70;;
81396;SDS011;70852;49.908;8.126;2023-07-02T07:29:34;14.07;;;8.13;;
81396;SDS011;70852;49.908;8.126;2023-07-02T07:31:59;14.45;;;7.93;;
81396;SDS011;70852;49.908;8.126;2023-07-02T07:34:32;13.95;;;7.57;;
81396;SDS011;70852;49.908;8.126;2023-07-02T07:37:00;12.70;;;7.75;;
81396;SDS011;70852;49.908;8.126;2023-07-02T07:39:25;15.23;;;8.40;;
81396;SDS011;70852;49.908;8.126;2023-07-02T07:41:50;14.18;;;8.30;;
81396;SDS011;70852;49.908;8.126;2023-07-02T07:44:16;17.50;;;10.00;;
81396;SDS011;70852;49.908;8.126;2023-07-02T07:46:44;15.32;;;8.25;;
81396;SDS011;70852;49.908;8.126;2023-07-02T07:49:12;15.20;;;8.40;;
81396;SDS011;70852;49.908;8.126;2023-07-02T07:51:38;16.40;;;8.40;;
81396;SDS011;70852;49.908;8.126;2023-07-02T07:54:06;17.08;;;9.25;;
81396;SDS011;70852;49.908;8.126;2023-07-02T07:56:34;16.05;;;8.18;;
81396;SDS011;70852;49.908;8.126;2023-07-02T07:58:59;14.57;;;8.00;;
81396;SDS011;70852;49.908;8.126;2023-07-02T08:01:25;14.27;;;8.00;;
81396;SDS011;70852;49.908;8.126;2023-07-02T08:03:52;16.63;;;8.48;;
81396;SDS011;70852;49.908;8.126;2023-07-02T08:06:17;18.05;;;8.30;;
81396;SDS011;70852;49.908;8.126;2023-07-02T08:08:45;15.27;;;7.32;;
81396;SDS011;70852;49.908;8.126;2023-07-02T08:11:10;14.45;;;7.90;;
81396;SDS011;70852;49.908;8.126;2023-07-02T08:13:36;17.30;;;8.52;;
81396;SDS011;70852;49.908;8.126;2023-07-02T08:16:04;14.35;;;7.70;;
81396;SDS011;70852;49.908;8.126;2023-07-02T08:18:30;13.52;;;7.13;;
81396;SDS011;70852;49.908;8.126;2023-07-02T08:20:55;12.27;;;7.05;;
81396;SDS011;70852;49.908;8.126;2023-07-02T08:23:23;12.10;;;6.45;;
81396;SDS011;70852;49.908;8.126;2023-07-02T08:25:51;11.90;;;6.38;;
81396;SDS011;70852;49.908;8.126;2023-07-02T08:28:19;10.98;;;5.95;;
81396;SDS011;70852;49.908;8.126;2023-07-02T08:30:46;11.70;;;6.22;;
81396;SDS011;70852;49.908;8.126;2023-07-02T08:33:14;11.02;;;6.10;;
81396;SDS011;70852;49.908;8.126;2023-07-02T08:35:42;13.35;;;5.97;;
81396;SDS011;70852;49.908;8.126;2023-07-02T08:38:07;11.90;;;6.63;;
81396;SDS011;70852;49.908;8.126;2023-07-02T08:40:33;13.35;;;6.35;;
81396;SDS011;70852;49.908;8.126;2023-07-02T08:42:58;14.48;;;7.25;;
81396;SDS011;70852;49.908;8.126;2023-07-02T08:45:24;13.23;;;6.65;;
81396;SDS011;70852;49.908;8.126;2023-07-02T08:47:51;11.43;;;5.72;;
81396;SDS011;70852;49.908;8.126;2023-07-02T08:50:21;13.45;;;6.25;;
81396;SDS011;70852;49.908;8.126;2023-07-02T08:52:47;12.95;;;7.10;;
81396;SDS011;70852;49.908;8.126;2023-07-02T08:55:12;13.80;;;6.72;;
81396;SDS011;70852;49.908;8.126;2023-07-02T08:57:38;13.38;;;7.38;;
81396;SDS011;70852;49.908;8.126;2023-07-02T09:00:10;14.27;;;7.15;;
81396;SDS011;70852;49.908;8.126;2023-07-02T09:02:36;12.93;;;7.10;;
81396;SDS011;70852;49.908;8.126;2023-07-02T09:05:02;14.52;;;7.55;;
81396;SDS011;70852;49.908;8.126;2023-07-02T09:07:28;14.57;;;6.60;;
81396;SDS011;70852;49.908;8.126;2023-07-02T09:09:55;16.40;;;7.82;;
81396;SDS011;70852;49.908;8.126;2023-07-02T09:12:30;13.70;;;7.07;;
81396;SDS011;70852;49.908;8.126;2023-07-02T09:15:01;15.38;;;7.53;;
81396;SDS011;70852;49.908;8.126;2023-07-02T09:17:30;12.20;;;6.60;;
81396;SDS011;70852;49.908;8.126;2023-07-02T09:19:59;13.57;;;7.00;;
81396;SDS011;70852;49.908;8.126;2023-07-02T09:22:26;13.60;;;7.15;;
81396;SDS011;70852;49.908;8.126;2023-07-02T09:24:56;14.13;;;7.47;;
81396;SDS011;70852;49.908;8.126;2023-07-02T09:32:34;16.50;;;8.50;;
81396;SDS011;70852;49.908;8.126;2023-07-02T09:35:00;17.65;;;8.00;;
81396;SDS011;70852;49.908;8.126;2023-07-02T09:37:26;16.80;;;7.70;;
81396;SDS011;70852;49.908;8.126;2023-07-02T09:39:52;15.77;;;7.82;;
81396;SDS011;70852;49.908;8.126;2023-07-02T09:42:22;15.38;;;7.60;;
81396;SDS011;70852;49.908;8.126;2023-07-02T09:44:51;14.88;;;8.02;;
81396;SDS011;70852;49.908;8.126;2023-07-02T09:47:19;17.38;;;8.05;;
81396;SDS011;70852;49.908;8.126;2023-07-02T09:52:33;16.90;;;7.88;;
81396;SDS011;70852;49.908;8.126;2023-07-02T09:55:00;18.45;;;8.07;;
81396;SDS011;70852;49.908;8.126;2023-07-02T09:57:26;12.10;;;7.72;;
81396;SDS011;70852;49.908;8.126;2023-07-02T09:59:54;16.45;;;7.90;;
81396;SDS011;70852;49.908;8.126;2023-07-02T10:02:20;14.93;;;7.53;;
81396;SDS011;70852;49.908;8.126;2023-07-02T10:04:46;17.70;;;7.80;;
81396;SDS011;70852;49.908;8.126;2023-07-02T10:07:13;15.57;;;7.53;;
81396;SDS011;70852;49.908;8.126;2023-07-02T10:09:50;15.63;;;9.00;;
81396;SDS011;70852;49.908;8.126;2023-07-02T10:12:28;14.27;;;7.00;;
81396;SDS011;70852;49.908;8.126;2023-07-02T10:14:57;14.77;;;7.50;;
81396;SDS011;70852;49.908;8.126;2023-07-02T10:17:24;13.98;;;6.90;;
81396;SDS011;70852;49.908;8.126;2023-07-02T10:19:52;15.23;;;7.57;;
81396;SDS011;70852;49.908;8.126;2023-07-02T10:22:18;14.73;;;7.82;;
81396;SDS011;70852;49.908;8.126;2023-07-02T10:24:58;13.38;;;7.95;;
81396;SDS011;70852;49.908;8.126;2023-07-02T10:30:02;14.02;;;7.95;;
81396;SDS011;70852;49.908;8.126;2023-07-02T10:32:32;17.73;;;8.80;;
81396;SDS011;70852;49.908;8.126;2023-07-02T10:34:59;15.80;;;8.68;;
81396;SDS011;70852;49.908;8.126;2023-07-02T10:37:34;13.27;;;7.70;;
81396;SDS011;70852;49.908;8.126;2023-07-02T10:40:04;19.23;;;8.52;;
81396;SDS011;70852;49.908;8.126;2023-07-02T10:42:31;14.20;;;8.50;;
81396;SDS011;70852;49.908;8.126;2023-07-02T10:44:57;16.17;;;8.43;;
81396;SDS011;70852;49.908;8.126;2023-07-02T10:47:28;15.70;;;8.90;;
81396;SDS011;70852;49.908;8.126;2023-07-02T10:49:53;14.98;;;8.50;;
81396;SDS011;70852;49.908;8.126;2023-07-02T10:52:24;16.25;;;8.35;;
81396;SDS011;70852;49.908;8.126;2023-07-02T10:55:01;16.50;;;8.63;;
81396;SDS011;70852;49.908;8.126;2023-07-02T10:57:31;20.13;;;9.32;;
81396;SDS011;70852;49.908;8.126;2023-07-02T11:00:06;17.35;;;9.38;;
81396;SDS011;70852;49.908;8.126;2023-07-02T11:02:38;17.13;;;8.52;;
81396;SDS011;70852;49.908;8.126;2023-07-02T11:05:06;20.42;;;9.00;;
81396;SDS011;70852;49.908;8.126;2023-07-02T11:07:37;15.35;;;8.55;;
81396;SDS011;70852;49.908;8.126;2023-07-02T11:10:09;14.25;;;8.18;;
81396;SDS011;70852;49.908;8.126;2023-07-02T11:12:35;14.20;;;8.43;;
81396;SDS011;70852;49.908;8.126;2023-07-02T11:15:15;17.55;;;9.18;;
81396;SDS011;70852;49.908;8.126;2023-07-02T11:17:44;16.27;;;8.90;;
81396;SDS011;70852;49.908;8.126;2023-07-02T11:20:14;19.42;;;9.10;;
81396;SDS011;70852;49.908;8.126;2023-07-02T11:22:41;20.45;;;9.52;;
81396;SDS011;70852;49.908;8.126;2023-07-02T11:25:13;17.38;;;8.95;;
81396;SDS011;70852;49.908;8.126;2023-07-02T11:27:45;18.10;;;9.00;;
81396;SDS011;70852;49.908;8.126;2023-07-02T11:30:11;18.85;;;8.85;;
81396;SDS011;70852;49.908;8.126;2023-07-02T11:32:46;17.85;;;9.25;;
81396;SDS011;70852;49.908;8.126;2023-07-02T11:35:17;17.80;;;8.88;;
81396;SDS011;70852;49.908;8.126;2023-07-02T11:37:46;17.45;;;9.98;;
81396;SDS011;70852;49.908;8.126;2023-07-02T11:40:13;18.25;;;9.25;;
81396;SDS011;70852;49.908;8.126;2023-07-02T11:42:42;17.42;;;9.25;;
81396;SDS011;70852;49.908;8.126;2023-07-02T11:45:09;17.88;;;9.68;;
81396;SDS011;70852;49.908;8.126;2023-07-02T11:47:35;18.77;;;8.77;;
81396;SDS011;70852;49.908;8.126;2023-07-02T11:50:05;16.30;;;8.60;;
81396;SDS011;70852;49.908;8.126;2023-07-02T11:52:32;17.55;;;8.93;;
81396;SDS011;70852;49.908;8.126;2023-07-02T11:55:01;15.57;;;8.50;;
81396;SDS011;70852;49.908;8.126;2023-07-02T11:57:27;13.95;;;8.07;;
81396;SDS011;70852;49.908;8.126;2023-07-02T11:59:52;15.50;;;9.20;;
81396;SDS011;70852;49.908;8.126;2023-07-02T12:02:18;17.42;;;8.27;;
81396;SDS011;70852;49.908;8.126;2023-07-02T12:04:46;16.75;;;8.18;;
81396;SDS011;70852;49.908;8.126;2023-07-02T12:07:13;18.20;;;8.00;;
81396;SDS011;70852;49.908;8.126;2023-07-02T12:09:43;15.20;;;8.30;;
81396;SDS011;70852;49.908;8.126;2023-07-02T12:12:11;16.38;;;9.23;;
81396;SDS011;70852;49.908;8.126;2023-07-02T12:14:38;15.43;;;8.70;;
81396;SDS011;70852;49.908;8.126;2023-07-02T12:17:08;17.65;;;9.68;;
81396;SDS011;70852;49.908;8.126;2023-07-02T12:19:37;17.90;;;8.52;;
81396;SDS011;70852;49.908;8.126;2023-07-02T12:22:08;17.48;;;8.68;;
81396;SDS011;70852;49.908;8.126;2023-07-02T12:24:33;16.33;;;8.70;;
81396;SDS011;70852;49.908;8.126;2023-07-02T12:27:01;14.05;;;8.48;;
81396;SDS011;70852;49.908;8.126;2023-07-02T12:29:26;13.82;;;7.90;;
81396;SDS011;70852;49.908;8.126;2023-07-02T12:31:51;16.02;;;8.48;;
81396;SDS011;70852;49.908;8.126;2023-07-02T12:34:17;13.85;;;7.32;;
81396;SDS011;70852;49.908;8.126;2023-07-02T12:36:42;12.98;;;7.25;;
81396;SDS011;70852;49.908;8.126;2023-07-02T12:39:07;15.15;;;7.97;;
81396;SDS011;70852;49.908;8.126;2023-07-02T12:41:33;14.88;;;7.72;;
81396;SDS011;70852;49.908;8.126;2023-07-02T12:44:01;14.68;;;7.60;;
81396;SDS011;70852;49.908;8.126;2023-07-02T12:46:26;15.63;;;7.63;;
81396;SDS011;70852;49.908;8.126;2023-07-02T12:48:54;16.17;;;8.00;;
81396;SDS011;70852;49.908;8.126;2023-07-02T12:51:19;14.38;;;7.55;;
81396;SDS011;70852;49.908;8.126;2023-07-02T12:53:44;15.55;;;7.95;;
81396;SDS011;70852;49.908;8.126;2023-07-02T12:56:10;15.25;;;7.43;;
81396;SDS011;70852;49.908;8.126;2023-07-02T12:58:37;15.23;;;7.45;;
81396;SDS011;70852;49.908;8.126;2023-07-02T13:01:03;16.00;;;7.60;;
81396;SDS011;70852;49.908;8.126;2023-07-02T13:03:32;15.95;;;7.47;;
81396;SDS011;70852;49.908;8.126;2023-07-02T13:05:58;14.57;;;7.65;;
81396;SDS011;70852;49.908;8.126;2023-07-02T13:08:25;16.48;;;7.80;;
81396;SDS011;70852;49.908;8.126;2023-07-02T13:10:51;13.88;;;7.25;;
81396;SDS011;70852;49.908;8.126;2023-07-02T13:13:16;14.70;;;7.28;;
81396;SDS011;70852;49.908;8.126;2023-07-02T13:15:41;15.10;;;6.95;;
81396;SDS011;70852;49.908;8.126;2023-07-02T13:18:09;14.43;;;8.13;;
81396;SDS011;70852;49.908;8.126;2023-07-02T13:20:35;14.73;;;8.23;;
81396;SDS011;70852;49.908;8.126;2023-07-02T13:23:00;15.63;;;8.70;;
81396;SDS011;70852;49.908;8.126;2023-07-02T13:25:28;15.32;;;8.45;;
81396;SDS011;70852;49.908;8.126;2023-07-02T13:27:55;15.13;;;7.57;;
81396;SDS011;70852;49.908;8.126;2023-07-02T13:30:20;13.30;;;7.53;;
81396;SDS011;70852;49.908;8.126;2023-07-02T13:32:49;12.50;;;7.50;;
81396;SDS011;70852;49.908;8.126;2023-07-02T13:35:17;16.33;;;8.18;;
81396;SDS011;70852;49.908;8.126;2023-07-02T13:37:42;15.68;;;7.95;;
81396;SDS011;70852;49.908;8.126;2023-07-02T13:40:10;14.25;;;7.72;;
81396;SDS011;70852;49.908;8.126;2023-07-02T13:42:40;16.42;;;7.90;;
81396;SDS011;70852;49.908;8.126;2023-07-02T13:45:07;14.77;;;7.78;;
81396;SDS011;70852;49.908;8.126;2023-07-02T13:47:34;15.60;;;7.75;;
81396;SDS011;70852;49.908;8.126;2023-07-02T13:50:02;17.63;;;9.07;;
81396;SDS011;70852;49.908;8.126;2023-07-02T13:52:34;15.45;;;7.93;;
81396;SDS011;70852;49.908;8.126;2023-07-02T13:55:00;17.83;;;8.45;;
81396;SDS011;70852;49.908;8.126;2023-07-02T13:57:27;15.20;;;8.43;;
81396;SDS011;70852;49.908;8.126;2023-07-02T13:59:52;15.65;;;7.93;;
81396;SDS011;70852;49.908;8.126;2023-07-02T14:02:20;15.43;;;8.70;;
81396;SDS011;70852;49.908;8.126;2023-07-02T14:04:46;15.32;;;8.30;;
81396;SDS011;70852;49.908;8.126;2023-07-02T14:07:14;16.60;;;8.73;;
81396;SDS011;70852;49.908;8.126;2023-07-02T14:09:40;16.13;;;8.05;;
81396;SDS011;70852;49.908;8.126;2023-07-02T14:12:09;16.13;;;8.00;;
81396;SDS011;70852;49.908;8.126;2023-07-02T14:14:35;17.67;;;8.10;;
81396;SDS011;70852;49.908;8.126;2023-07-02T14:17:00;21.27;;;9.18;;
81396;SDS011;70852;49.908;8.126;2023-07-02T14:19:28;15.02;;;8.20;;
81396;SDS011;70852;49.908;8.126;2023-07-02T14:21:53;15.05;;;8.02;;
81396;SDS011;70852;49.908;8.126;2023-07-02T14:24:19;14.77;;;7.97;;
81396;SDS011;70852;49.908;8.126;2023-07-02T14:26:51;17.88;;;8.30;;
81396;SDS011;70852;49.908;8.126;2023-07-02T14:29:16;15.68;;;8.23;;
81396;SDS011;70852;49.908;8.126;2023-07-02T14:31:44;15.00;;;7.45;;
81396;SDS011;70852;49.908;8.126;2023-07-02T14:34:09;16.20;;;8.40;;
81396;SDS011;70852;49.908;8.126;2023-07-02T14:36:37;17.90;;;7.85;;
81396;SDS011;70852;49.908;8.126;2023-07-02T14:39:02;14.10;;;7.93;;
81396;SDS011;70852;49.908;8.126;2023-07-02T14:41:30;46.97;;;21.08;;
81396;SDS011;70852;49.908;8.126;2023-07-02T14:44:00;24.13;;;10.43;;
81396;SDS011;70852;49.908;8.126;2023-07-02T14:46:28;21.70;;;9.57;;
81396;SDS011;70852;49.908;8.126;2023-07-02T14:48:54;16.77;;;9.23;;
81396;SDS011;70852;49.908;8.126;2023-07-02T14:51:21;15.75;;;8.63;;
81396;SDS011;70852;49.908;8.126;2023-07-02T14:53:47;15.25;;;8.65;;
81396;SDS011;70852;49.908;8.126;2023-07-02T14:56:15;19.20;;;9.23;;